Fushun, China
Current Conditions -  °F | °C
As of 8:30 PM on Sunday 23 Nov 2014 (Local Time) from ZYTX Reporting Station
Clear Clear  
Wind Chill: 37°   Ceiling: Unl
Heat Index: 41°   Visibility: 4mi
Dew Point: 37°   Wind: 7mph
Humidity: 87%   Direction: 150°SSE
Pressure: 30.24"   Gusts: NA
Location:  41.87°N, 123.88°E
Report Text: ZYTX 231230Z 15003MPS 6000 NSC 05/03 Q1024 NOSIG
Loading
Personal Weather Stations






























Interactive Weather Map New forecast layout! Learn more

10-Day Weather Forecast

Advertisements
Track Severe Weather on mobile